CheckWX is a tool to help pilots better visualize weather data.  It is not intended as a substitute for an official pre-flight weather briefing.

17:00:27 UTC

KGYR METAR
Phoenix Goodyear Airport
Goodyear, Arizona, USA
Current

13 mins ago

KGYR 261647Z 02006KT 10SM SCT250 13/06 A3016
Observed
Jan-26 @ 16:47 UTC
Wind
  • 020° at 6 KTS
Visibility
10 SM
Flight Rules
VFR
Cloud Levels
  • Scattered at 25,000' AGL
Temperature
13°C / 55°F
Dewpoint
C / 43°F
Humidity
63%
Altimeter
30.16" Hg
Pressure
1021.32 hPa
Previous

1 hour ago

KGYR 261547Z 03005KT 10SM SCT250 09/06 A3015
Observed
Jan-26 @ 15:47 UTC
Wind
  • 030° at 5 KTS
Visibility
10 SM
Flight Rules
VFR
Cloud Levels
  • Scattered at 25,000' AGL
Temperature
C / 48°F
Dewpoint
C / 43°F
Humidity
82%
Altimeter
30.15" Hg
Pressure
1021.02 hPa
Previous

2 hours ago

KGYR 261447Z 06005KT 10SM SCT250 08/06 A3014
Observed
Jan-26 @ 14:47 UTC
Wind
  • 060° at 5 KTS
Visibility
10 SM
Flight Rules
VFR
Cloud Levels
  • Scattered at 25,000' AGL
Temperature
C / 46°F
Dewpoint
C / 43°F
Humidity
87%
Altimeter
30.14" Hg
Pressure
1020.62 hPa